createdAt,value
2018-11-22T12:17:34.017Z,1.50
2018-11-22T12:20:02.446Z,1.40
2018-11-22T12:22:30.885Z,1.40
2018-11-22T12:24:59.398Z,1.40
2018-11-22T12:27:27.894Z,1.40
2018-11-22T12:29:56.328Z,1.40
2018-11-22T12:32:29.009Z,1.40
2018-11-22T12:35:01.648Z,1.30
2018-11-22T12:37:34.243Z,1.30
2018-11-22T12:40:03.037Z,1.30
2018-11-22T12:42:31.417Z,1.20
2018-11-22T12:45:03.956Z,1.20
2018-11-22T12:47:33.485Z,1.20
2018-11-22T12:50:02.597Z,1.20
2018-11-22T12:52:30.925Z,1.20
2018-11-22T12:54:59.280Z,1.10
2018-11-22T12:57:27.886Z,1.10
2018-11-22T12:59:56.372Z,1.10
2018-11-22T13:02:25.425Z,1.10
2018-11-22T13:04:54.258Z,1.20
2018-11-22T13:07:22.678Z,1.20
2018-11-22T13:09:51.113Z,1.10
2018-11-22T13:12:19.610Z,1.10
2018-11-22T13:14:49.307Z,1.10
2018-11-22T13:17:17.790Z,1.10
2018-11-22T13:19:46.298Z,1.10
2018-11-22T13:22:14.677Z,1.00
2018-11-22T13:24:43.339Z,1.00
2018-11-22T13:27:12.018Z,1.00
2018-11-22T13:29:40.484Z,1.00
2018-11-22T13:32:08.857Z,1.00
2018-11-22T13:34:37.378Z,1.00
2018-11-22T13:37:05.767Z,1.00
2018-11-22T13:39:34.637Z,1.00
2018-11-22T13:42:03.068Z,1.00
2018-11-22T13:44:31.501Z,1.00
2018-11-22T13:46:59.922Z,1.00
2018-11-22T13:49:28.325Z,1.00
2018-11-22T13:51:56.718Z,1.00
2018-11-22T13:54:25.138Z,1.00
2018-11-22T13:56:53.634Z,1.00
2018-11-22T13:59:22.277Z,1.00
2018-11-22T14:01:50.918Z,1.00
2018-11-22T14:04:19.358Z,1.00
2018-11-22T14:06:47.882Z,1.00
2018-11-22T14:09:16.350Z,1.00
2018-11-22T14:11:44.838Z,1.00
2018-11-22T14:14:13.303Z,1.00
2018-11-22T14:16:41.727Z,1.00
2018-11-22T14:19:10.268Z,0.90
2018-11-22T14:21:38.678Z,0.90
2018-11-22T14:24:07.071Z,0.90
2018-11-22T14:26:35.492Z,0.90
2018-11-22T14:29:03.911Z,0.90
2018-11-22T14:31:32.344Z,0.80
2018-11-22T14:34:00.862Z,0.80
2018-11-22T14:36:29.303Z,0.80
2018-11-22T14:38:59.743Z,0.70
2018-11-22T14:41:32.019Z,0.70
2018-11-22T14:44:00.587Z,0.70
2018-11-22T14:46:29.019Z,0.70
2018-11-22T14:48:58.059Z,0.70
2018-11-22T14:51:32.797Z,0.70
2018-11-22T14:54:01.359Z,0.70
2018-11-22T14:56:29.857Z,0.70
2018-11-22T14:58:58.321Z,0.70
2018-11-22T15:02:05.241Z,0.70
2018-11-22T15:04:33.699Z,0.70
2018-11-22T15:08:21.255Z,0.70
2018-11-22T15:11:02.861Z,0.70
2018-11-22T15:13:39.104Z,0.70
2018-11-22T15:16:07.589Z,0.60
2018-11-22T15:18:36.068Z,0.70
2018-11-22T15:21:04.905Z,0.60
2018-11-22T15:23:34.097Z,0.60
2018-11-22T15:26:02.554Z,0.60
2018-11-22T15:28:31.756Z,0.60
2018-11-22T15:31:00.240Z,0.60
2018-11-22T15:33:28.720Z,0.60
2018-11-22T15:35:58.212Z,0.60
2018-11-22T15:38:26.654Z,0.50
2018-11-22T15:40:55.208Z,0.50
2018-11-22T15:43:23.667Z,0.50
2018-11-22T15:45:52.248Z,0.50
2018-11-22T15:48:20.682Z,0.50
2018-11-22T15:50:49.526Z,0.60
2018-11-22T15:53:18.487Z,0.50
2018-11-22T15:55:47.392Z,0.60
2018-11-22T15:58:17.387Z,0.60
2018-11-22T16:00:48.929Z,0.60
2018-11-22T16:03:19.493Z,0.50
2018-11-22T16:05:50.165Z,0.60
2018-11-22T16:08:18.908Z,0.60
2018-11-22T16:10:49.934Z,0.60
2018-11-22T16:13:20.516Z,0.50
2018-11-22T16:15:50.773Z,0.50
2018-11-22T16:18:19.226Z,0.50
2018-11-22T16:20:52.200Z,0.50
2018-11-22T16:23:20.627Z,0.50
2018-11-22T16:25:49.468Z,0.50
2018-11-22T16:28:17.913Z,0.40
2018-11-22T16:30:47.049Z,0.40
2018-11-22T16:33:16.281Z,0.40
2018-11-22T16:35:47.569Z,0.40
2018-11-22T16:38:19.897Z,0.40
2018-11-22T16:40:51.287Z,0.40
2018-11-22T16:43:19.792Z,0.40
2018-11-22T16:45:49.087Z,0.40
2018-11-22T16:48:23.138Z,0.40
2018-11-22T16:50:55.075Z,0.40
2018-11-22T16:53:24.158Z,0.40
2018-11-22T16:55:52.770Z,0.40
2018-11-22T16:58:21.451Z,0.40
2018-11-22T17:00:49.900Z,0.40
2018-11-22T17:03:19.306Z,0.40
2018-11-22T17:05:47.838Z,0.40
2018-11-22T17:08:17.647Z,0.40
2018-11-22T17:10:46.148Z,0.40
2018-11-22T17:13:15.835Z,0.40
2018-11-22T17:15:46.116Z,0.40
2018-11-22T17:18:24.719Z,0.30
2018-11-22T17:20:54.968Z,0.30
2018-11-22T17:23:26.099Z,0.30
2018-11-22T17:25:57.806Z,0.40
2018-11-22T17:28:30.639Z,0.30
2018-11-22T17:31:05.095Z,0.30
2018-11-22T17:33:34.747Z,0.30
2018-11-22T17:36:03.192Z,0.30
2018-11-22T17:38:32.140Z,0.30
2018-11-22T17:41:02.753Z,0.30
2018-11-22T17:43:44.620Z,0.30
2018-11-22T17:46:18.678Z,0.30
2018-11-22T17:48:57.233Z,0.30
2018-11-22T17:51:37.540Z,0.30
2018-11-22T17:54:06.490Z,0.20
2018-11-22T17:56:35.007Z,0.20
2018-11-22T17:59:03.492Z,0.20
2018-11-22T18:01:32.073Z,0.30
2018-11-22T18:04:00.511Z,0.30
2018-11-22T18:06:28.906Z,0.20
2018-11-22T18:08:57.405Z,0.20
2018-11-22T18:11:25.913Z,0.20
2018-11-22T18:13:54.324Z,0.10
2018-11-22T18:16:22.833Z,0.10
2018-11-22T18:18:51.288Z,0.10
2018-11-22T18:21:19.804Z,0.10
2018-11-22T18:23:48.252Z,0.10
2018-11-22T18:26:16.771Z,0.00
2018-11-22T18:28:45.243Z,0.00
2018-11-22T18:31:13.648Z,0.00
2018-11-22T18:33:42.103Z,0.00
2018-11-22T18:36:10.598Z,0.00
2018-11-22T18:38:40.098Z,0.00
2018-11-22T18:41:09.486Z,0.00
2018-11-22T18:43:39.578Z,0.00
2018-11-22T18:46:09.783Z,0.00
2018-11-22T18:48:38.388Z,0.00
2018-11-22T18:51:06.866Z,0.00
2018-11-22T18:53:35.297Z,0.00
2018-11-22T18:56:03.764Z,0.00
2018-11-22T18:58:32.278Z,-0.10
2018-11-22T19:01:00.826Z,0.00
2018-11-22T19:03:29.269Z,0.00
2018-11-22T19:05:57.796Z,0.00
2018-11-22T19:08:26.210Z,0.00
2018-11-22T19:10:54.626Z,0.00
2018-11-22T19:13:23.091Z,0.00
2018-11-22T19:15:51.685Z,-0.10
2018-11-22T19:18:20.157Z,0.00
2018-11-22T19:20:48.610Z,0.00
2018-11-22T19:23:20.026Z,0.00
2018-11-22T19:25:48.446Z,0.00
2018-11-22T19:28:20.149Z,0.00
2018-11-22T19:30:49.073Z,0.00
2018-11-22T19:33:18.744Z,0.00
2018-11-22T19:35:49.207Z,0.00
2018-11-22T19:38:17.687Z,0.00
2018-11-22T19:40:46.370Z,-0.10
2018-11-22T19:43:14.887Z,-0.10
2018-11-22T19:45:47.943Z,-0.10
2018-11-22T19:48:16.685Z,-0.10
2018-11-22T19:50:45.039Z,-0.10
2018-11-22T19:53:14.562Z,-0.10
2018-11-22T19:55:47.206Z,-0.10
2018-11-22T19:58:21.103Z,-0.10
2018-11-22T20:00:53.543Z,-0.10
2018-11-22T20:03:21.946Z,-0.10
2018-11-22T20:05:50.776Z,-0.10
2018-11-22T20:08:19.785Z,-0.10
2018-11-22T20:10:49.105Z,-0.10
2018-11-22T20:13:17.527Z,-0.10
2018-11-22T20:15:45.944Z,-0.10
2018-11-22T20:18:14.525Z,-0.10
2018-11-22T20:20:43.094Z,-0.10
2018-11-22T20:23:11.450Z,0.00
2018-11-22T20:25:41.728Z,0.00
2018-11-22T20:28:10.199Z,-0.10
2018-11-22T20:30:43.172Z,0.00
2018-11-22T20:33:11.703Z,-0.10
2018-11-22T20:35:41.995Z,-0.10
2018-11-22T20:38:57.562Z,-0.10
2018-11-22T20:41:28.102Z,-0.10
2018-11-22T20:43:56.549Z,-0.10
2018-11-22T20:46:24.971Z,-0.20
2018-11-22T20:48:53.427Z,-0.20
2018-11-22T20:51:21.881Z,-0.20
2018-11-22T20:53:50.388Z,-0.20
2018-11-22T20:56:18.861Z,-0.20
2018-11-22T20:58:47.268Z,-0.30
2018-11-22T21:01:15.733Z,-0.30
2018-11-22T21:03:44.284Z,-0.30
2018-11-22T21:06:12.874Z,-0.30
2018-11-22T21:08:48.428Z,-0.30
2018-11-22T21:11:09.748Z,-0.30
2018-11-22T21:13:38.219Z,-0.30
2018-11-22T21:16:06.767Z,-0.30
2018-11-22T21:18:35.155Z,-0.30
2018-11-22T21:21:08.974Z,-0.30
2018-11-22T21:23:37.418Z,-0.30
2018-11-22T21:26:06.335Z,-0.30
2018-11-22T21:28:34.776Z,-0.30
2018-11-22T21:31:03.223Z,-0.30
2018-11-22T21:37:11.664Z,-0.30
2018-11-22T21:39:40.193Z,-0.30
2018-11-22T21:42:08.703Z,-0.30
2018-11-22T21:44:37.176Z,-0.40
2018-11-22T21:47:05.765Z,-0.30
2018-11-22T21:49:34.135Z,-0.40
2018-11-22T21:52:02.624Z,-0.30
2018-11-22T21:54:31.016Z,-0.40
2018-11-22T21:56:59.463Z,-0.40
2018-11-22T21:59:27.853Z,-0.40
2018-11-22T22:01:56.239Z,-0.40
2018-11-22T22:04:24.652Z,-0.40
2018-11-22T22:06:53.148Z,-0.40
2018-11-22T22:09:21.552Z,-0.40
2018-11-22T22:11:49.971Z,-0.40
2018-11-22T22:14:18.755Z,-0.40
2018-11-22T22:16:47.138Z,-0.40
2018-11-22T22:19:15.510Z,-0.40
2018-11-22T22:21:43.890Z,-0.40
2018-11-22T22:24:12.247Z,-0.30
2018-11-22T22:26:40.700Z,-0.40
2018-11-22T22:29:09.064Z,-0.40
2018-11-22T22:31:37.423Z,-0.40
2018-11-22T22:34:06.029Z,-0.30
2018-11-22T22:36:34.383Z,-0.30
2018-11-22T22:39:02.903Z,-0.30
2018-11-22T22:41:31.270Z,-0.30
2018-11-22T22:44:02.260Z,-0.30
2018-11-22T22:46:30.633Z,-0.30
2018-11-22T22:48:58.980Z,-0.30
2018-11-22T22:51:27.365Z,-0.30
2018-11-22T22:53:55.777Z,-0.30
2018-11-22T22:56:24.181Z,-0.30
2018-11-22T22:58:52.547Z,-0.30
2018-11-22T23:01:20.908Z,-0.30
2018-11-22T23:03:49.238Z,-0.30
2018-11-22T23:06:17.597Z,-0.40
2018-11-22T23:08:46.082Z,-0.40
2018-11-22T23:11:14.445Z,-0.40
2018-11-22T23:13:42.826Z,-0.40
2018-11-22T23:16:11.230Z,-0.40
2018-11-22T23:18:39.685Z,-0.40
2018-11-22T23:21:08.083Z,-0.40
2018-11-22T23:23:36.494Z,-0.40
2018-11-22T23:26:06.235Z,-0.40
2018-11-22T23:28:34.720Z,-0.50
2018-11-22T23:31:03.065Z,-0.50
2018-11-22T23:33:31.554Z,-0.50
2018-11-22T23:35:59.959Z,-0.50
2018-11-22T23:38:28.298Z,-0.40
2018-11-22T23:40:56.810Z,-0.40
2018-11-22T23:43:25.189Z,-0.40
2018-11-22T23:45:53.568Z,-0.40
2018-11-22T23:48:21.992Z,-0.40
2018-11-22T23:50:50.397Z,-0.40
2018-11-22T23:53:18.830Z,-0.40
2018-11-22T23:55:47.268Z,-0.40
2018-11-22T23:58:15.667Z,-0.40
